Terminal Aerodrome Forecast
Issued by NWS Brownsville, TX

Home | Current Version | Previous Version | Text Only | Print | Product List | Glossary On
Versions: 1 2 3 4 5 6 7 8 9 10 11 12 13 14 15 16
000
FTUS44 KBRO 200538
TAFBRO
TAF
KBRO 200538Z 2006/2106 05003KT P6SM BKN015
     FM201400 12009KT P6SM BKN020
     FM201800 12012G18KT P6SM BKN025
     FM202200 12013G19KT P6SM BKN050
     FM210500 14010G16KT P6SM BKN025=

USA.gov is the U.S. government's official web portal to all federal, state and local government web resources and services.